John P. Brown — WDA9975 — position and weather

sailwx.info

Track history (hours):
 
Tides and Currents Weather Stations Pressure Air Temp Water Temp Dewpoint Dewpoint Depression Visibility Wind Speed Wind Dir Waves Ship Positions

John P. Brown

Owner: THOMAS J. BROWN & SONS INC., STATEN ISLAND, NY. More information available from US FCC via Universal Licensing System and Coast Guard Vessel Documentation Center.

Last reported at 2017-Sep-20 17:07 UTC. Time now 2017-Sep-21 05:11 UTC.
Position N 40°38' W 074°10'.

Length 23 m; draft 2.8 m.

Type: Tug. MMSI: 366870980.

Date/timePositionNaut miles runAvg speedWind from/ knotsBaromVisibWave heightAir tempDewpointWater temp
2017-Sep-20 17:07N 40°38' W 074°10'0 0.0
2017-Sep-20 17:00N 40°38' W 074°10'0 0.0
2017-Sep-20 16:31N 40°38' W 074°10'0 0.0
2017-Sep-20 16:00N 40°38' W 074°10'2 3.8
2017-Sep-20 15:30N 40°40' W 074°08'3 6.4
2017-Sep-20 15:01N 40°43' W 074°07'2 2.1
2017-Sep-20 14:00N 40°45' W 074°05'0 0.0
2017-Sep-20 13:30N 40°45' W 074°05'0 0.0
2017-Sep-20 13:00N 40°45' W 074°05'0 0.2
2017-Sep-20 12:30N 40°44' W 074°05'3 6.0
2017-Sep-20 12:00N 40°42' W 074°07'4 8.1
2017-Sep-20 11:30N 40°38' W 074°10'0 0.1
2017-Sep-20 11:01N 40°38' W 074°10'  
2017-Sep-15 18:18N 40°39' W 074°04'1 4.7
2017-Sep-15 18:00N 40°41' W 074°04'0 0.3
2017-Sep-15 17:30N 40°41' W 074°04'0 0.0
2017-Sep-15 17:00N 40°41' W 074°04'0 0.0
2017-Sep-15 16:30N 40°41' W 074°04'0 0.0
2017-Sep-15 16:00N 40°41' W 074°04'0 0.3
2017-Sep-15 15:30N 40°41' W 074°04'0 0.0
2017-Sep-15 15:00N 40°41' W 074°04'0 0.0
2017-Sep-15 14:31N 40°41' W 074°04'0 0.1
2017-Sep-15 14:00N 40°41' W 074°04'0 0.1
2017-Sep-15 13:30N 40°41' W 074°04'2 3.7
2017-Sep-15 13:01N 40°39' W 074°03'1 1.8
2017-Sep-15 12:30N 40°39' W 074°02'0 0.7
2017-Sep-15 12:01N 40°39' W 074°02'2 4.7
2017-Sep-15 11:30N 40°41' W 074°04'2 4.3
2017-Sep-15 11:00N 40°39' W 074°06'2 4.9
2017-Sep-15 10:30N 40°40' W 074°08'1 2.6
2017-Sep-15 10:00N 40°41' W 074°10'3 5.5
2017-Sep-15 09:28N 40°38' W 074°10'0 0.0
2017-Sep-14 21:32N 40°38' W 074°10'0 0.0
2017-Sep-14 21:30N 40°38' W 074°10'4 7.4
2017-Sep-14 21:00N 40°39' W 074°05'1 2.8
2017-Sep-14 20:30N 40°40' W 074°04'0 0.8
2017-Sep-14 20:01N 40°40' W 074°04'2 4.1
2017-Sep-14 19:30N 40°42' W 074°02'2 3.9
2017-Sep-14 19:00N 40°44' W 074°01'1 1.9
2017-Sep-14 18:30N 40°45' W 074°01'2 4.4
2017-Sep-14 18:00N 40°42' W 074°01'3 6.1
2017-Sep-14 17:30N 40°40' W 074°04'1 2.1
2017-Sep-14 17:00N 40°39' W 074°04'3 5.3
2017-Sep-14 16:30N 40°39' W 074°08'3 5.2
2017-Sep-14 15:59N 40°39' W 074°11'0 0.2
2017-Sep-14 15:30N 40°39' W 074°11'2 4.2
2017-Sep-14 15:00N 40°39' W 074°08'3 6.4
2017-Sep-14 14:30N 40°39' W 074°04'3 6.2
2017-Sep-14 14:01N 40°42' W 074°02'4 8.2
2017-Sep-14 13:30N 40°46' W 074°01'0 0.7
2017-Sep-14 13:00N 40°46' W 074°00'4 7.8
2017-Sep-14 12:30N 40°42' W 074°02'3 6.8
2017-Sep-14 12:00N 40°40' W 074°04'4 0.3
2017-Sep-13 23:28N 40°41' W 074°08'0 0.1
2017-Sep-13 23:01N 40°41' W 074°08'0 0.0
2017-Sep-13 22:31N 40°41' W 074°08'0 0.0
2017-Sep-13 22:01N 40°41' W 074°08'0 0.0
2017-Sep-13 21:30N 40°41' W 074°08'1 1.4
2017-Sep-13 21:00N 40°42' W 074°07'3 6.7
2017-Sep-13 20:30N 40°44' W 074°05'0 0.4
2017-Sep-13 20:00N 40°45' W 074°05'0 0.0
2017-Sep-13 19:30N 40°45' W 074°05'0 0.1
2017-Sep-13 19:00N 40°44' W 074°05'0 0.1
2017-Sep-13 18:30N 40°44' W 074°05'3 5.8
2017-Sep-13 18:00N 40°42' W 074°07'3 6.8
2017-Sep-13 17:31N 40°39' W 074°09'1 2.0
2017-Sep-13 17:01N 40°38' W 074°10'0 0.0
2017-Sep-13 15:52N 40°38' W 074°10'1 3.8
2017-Sep-13 15:30N 40°39' W 074°08'3 6.0
2017-Sep-13 15:01N 40°40' W 074°04'1 2.3
2017-Sep-13 14:30N 40°41' W 074°04'0 0.5
2017-Sep-13 14:01N 40°41' W 074°04'2 4.7
2017-Sep-13 13:30N 40°39' W 074°02'0 0.2
2017-Sep-13 13:01N 40°39' W 074°02'0 0.9
2017-Sep-13 12:30N 40°39' W 074°02'2 4.6
2017-Sep-13 12:01N 40°41' W 074°04'2 4.4
2017-Sep-13 11:30N 40°39' W 074°06'3 6.0
2017-Sep-13 11:00N 40°38' W 074°10'0 0.0
2017-Sep-12 17:43N 40°38' W 074°10'0 0.3
2017-Sep-12 17:31N 40°38' W 074°10'3 5.5
2017-Sep-12 17:01N 40°39' W 074°06'2 4.4
2017-Sep-12 16:31N 40°40' W 074°04'0 0.3
2017-Sep-12 16:00N 40°40' W 074°04'2 4.2
2017-Sep-12 15:30N 40°39' W 074°02'0 0.0
2017-Sep-12 15:00N 40°39' W 074°02'2 3.3
2017-Sep-12 14:30N 40°40' W 074°03'1 2.3
2017-Sep-12 14:01N 40°41' W 074°04'0 0.0
2017-Sep-12 13:30N 40°41' W 074°04'2 4.6
2017-Sep-12 13:00N 40°39' W 074°02'0 1.0
2017-Sep-12 12:30N 40°39' W 074°02'0 0.8
2017-Sep-12 12:01N 40°39' W 074°02'2 4.5
2017-Sep-12 11:31N 40°41' W 074°04'2 3.1
2017-Sep-12 11:01N 40°39' W 074°05'4 7.9
2017-Sep-12 10:31N 40°38' W 074°10'0 0.0
2017-Sep-11 14:10N 40°38' W 074°10'0 2.1
2017-Sep-11 14:00N 40°38' W 074°09'4 7.5
2017-Sep-11 13:30N 40°42' W 074°07'3 5.7
2017-Sep-11 12:58N 40°44' W 074°05'0 0.1
2017-Sep-11 12:30N 40°45' W 074°05'0 0.0
2017-Sep-11 11:53N 40°45' W 074°05'0 1.2
2017-Sep-11 11:29N 40°44' W 074°05'3 7.4
2017-Sep-11 11:00N 40°41' W 074°08'3 6.7
2017-Sep-11 10:30N 40°38' W 074°10'  
Track history (hours):
 
Tides and Currents Weather Stations Pressure Air Temp Water Temp Dewpoint Dewpoint Depression Visibility Wind Speed Wind Dir Waves Ship Positions

John P. Brown

Owner: THOMAS J. BROWN & SONS INC., STATEN ISLAND, NY. More information available from US FCC via Universal Licensing System and Coast Guard Vessel Documentation Center.

Last reported at 2017-Sep-20 17:07 UTC. Time now 2017-Sep-21 05:11 UTC.
Position N 40°38' W 074°10'.

Length 23 m; draft 2.8 m.

Type: Tug. MMSI: 366870980.

Date/timePositionNaut miles runAvg speedWind from/ knotsBaromVisibWave heightAir tempDewpointWater temp
2017-Sep-20 17:07N 40°38' W 074°10'0 0.0
2017-Sep-20 17:00N 40°38' W 074°10'0 0.0
2017-Sep-20 16:31N 40°38' W 074°10'0 0.0
2017-Sep-20 16:00N 40°38' W 074°10'2 3.8
2017-Sep-20 15:30N 40°40' W 074°08'3 6.4
2017-Sep-20 15:01N 40°43' W 074°07'2 2.1
2017-Sep-20 14:00N 40°45' W 074°05'0 0.0
2017-Sep-20 13:30N 40°45' W 074°05'0 0.0
2017-Sep-20 13:00N 40°45' W 074°05'0 0.2
2017-Sep-20 12:30N 40°44' W 074°05'3 6.0
2017-Sep-20 12:00N 40°42' W 074°07'4 8.1
2017-Sep-20 11:30N 40°38' W 074°10'0 0.1
2017-Sep-20 11:01N 40°38' W 074°10'  
2017-Sep-15 18:18N 40°39' W 074°04'1 4.7
2017-Sep-15 18:00N 40°41' W 074°04'0 0.3
2017-Sep-15 17:30N 40°41' W 074°04'0 0.0
2017-Sep-15 17:00N 40°41' W 074°04'0 0.0
2017-Sep-15 16:30N 40°41' W 074°04'0 0.0
2017-Sep-15 16:00N 40°41' W 074°04'0 0.3
2017-Sep-15 15:30N 40°41' W 074°04'0 0.0
2017-Sep-15 15:00N 40°41' W 074°04'0 0.0
2017-Sep-15 14:31N 40°41' W 074°04'0 0.1
2017-Sep-15 14:00N 40°41' W 074°04'0 0.1
2017-Sep-15 13:30N 40°41' W 074°04'2 3.7
2017-Sep-15 13:01N 40°39' W 074°03'1 1.8
2017-Sep-15 12:30N 40°39' W 074°02'0 0.7
2017-Sep-15 12:01N 40°39' W 074°02'2 4.7
2017-Sep-15 11:30N 40°41' W 074°04'2 4.3
2017-Sep-15 11:00N 40°39' W 074°06'2 4.9
2017-Sep-15 10:30N 40°40' W 074°08'1 2.6
2017-Sep-15 10:00N 40°41' W 074°10'3 5.5
2017-Sep-15 09:28N 40°38' W 074°10'0 0.0
2017-Sep-14 21:32N 40°38' W 074°10'0 0.0
2017-Sep-14 21:30N 40°38' W 074°10'4 7.4
2017-Sep-14 21:00N 40°39' W 074°05'1 2.8
2017-Sep-14 20:30N 40°40' W 074°04'0 0.8
2017-Sep-14 20:01N 40°40' W 074°04'2 4.1
2017-Sep-14 19:30N 40°42' W 074°02'2 3.9
2017-Sep-14 19:00N 40°44' W 074°01'1 1.9
2017-Sep-14 18:30N 40°45' W 074°01'2 4.4
2017-Sep-14 18:00N 40°42' W 074°01'3 6.1
2017-Sep-14 17:30N 40°40' W 074°04'1 2.1
2017-Sep-14 17:00N 40°39' W 074°04'3 5.3
2017-Sep-14 16:30N 40°39' W 074°08'3 5.2
2017-Sep-14 15:59N 40°39' W 074°11'0 0.2
2017-Sep-14 15:30N 40°39' W 074°11'2 4.2
2017-Sep-14 15:00N 40°39' W 074°08'3 6.4
2017-Sep-14 14:30N 40°39' W 074°04'3 6.2
2017-Sep-14 14:01N 40°42' W 074°02'4 8.2
2017-Sep-14 13:30N 40°46' W 074°01'0 0.7
2017-Sep-14 13:00N 40°46' W 074°00'4 7.8
2017-Sep-14 12:30N 40°42' W 074°02'3 6.8
2017-Sep-14 12:00N 40°40' W 074°04'4 0.3
2017-Sep-13 23:28N 40°41' W 074°08'0 0.1
2017-Sep-13 23:01N 40°41' W 074°08'0 0.0
2017-Sep-13 22:31N 40°41' W 074°08'0 0.0
2017-Sep-13 22:01N 40°41' W 074°08'0 0.0
2017-Sep-13 21:30N 40°41' W 074°08'1 1.4
2017-Sep-13 21:00N 40°42' W 074°07'3 6.7
2017-Sep-13 20:30N 40°44' W 074°05'0 0.4
2017-Sep-13 20:00N 40°45' W 074°05'0 0.0
2017-Sep-13 19:30N 40°45' W 074°05'0 0.1
2017-Sep-13 19:00N 40°44' W 074°05'0 0.1
2017-Sep-13 18:30N 40°44' W 074°05'3 5.8
2017-Sep-13 18:00N 40°42' W 074°07'3 6.8
2017-Sep-13 17:31N 40°39' W 074°09'1 2.0
2017-Sep-13 17:01N 40°38' W 074°10'0 0.0
2017-Sep-13 15:52N 40°38' W 074°10'1 3.8
2017-Sep-13 15:30N 40°39' W 074°08'3 6.0
2017-Sep-13 15:01N 40°40' W 074°04'1 2.3
2017-Sep-13 14:30N 40°41' W 074°04'0 0.5
2017-Sep-13 14:01N 40°41' W 074°04'2 4.7
2017-Sep-13 13:30N 40°39' W 074°02'0 0.2
2017-Sep-13 13:01N 40°39' W 074°02'0 0.9
2017-Sep-13 12:30N 40°39' W 074°02'2 4.6
2017-Sep-13 12:01N 40°41' W 074°04'2 4.4
2017-Sep-13 11:30N 40°39' W 074°06'3 6.0
2017-Sep-13 11:00N 40°38' W 074°10'0 0.0
2017-Sep-12 17:43N 40°38' W 074°10'0 0.3
2017-Sep-12 17:31N 40°38' W 074°10'3 5.5
2017-Sep-12 17:01N 40°39' W 074°06'2 4.4
2017-Sep-12 16:31N 40°40' W 074°04'0 0.3
2017-Sep-12 16:00N 40°40' W 074°04'2 4.2
2017-Sep-12 15:30N 40°39' W 074°02'0 0.0
2017-Sep-12 15:00N 40°39' W 074°02'2 3.3
2017-Sep-12 14:30N 40°40' W 074°03'1 2.3
2017-Sep-12 14:01N 40°41' W 074°04'0 0.0
2017-Sep-12 13:30N 40°41' W 074°04'2 4.6
2017-Sep-12 13:00N 40°39' W 074°02'0 1.0
2017-Sep-12 12:30N 40°39' W 074°02'0 0.8
2017-Sep-12 12:01N 40°39' W 074°02'2 4.5
2017-Sep-12 11:31N 40°41' W 074°04'2 3.1
2017-Sep-12 11:01N 40°39' W 074°05'4 7.9
2017-Sep-12 10:31N 40°38' W 074°10'0 0.0
2017-Sep-11 14:10N 40°38' W 074°10'0 2.1
2017-Sep-11 14:00N 40°38' W 074°09'4 7.5
2017-Sep-11 13:30N 40°42' W 074°07'3 5.7
2017-Sep-11 12:58N 40°44' W 074°05'0 0.1
2017-Sep-11 12:30N 40°45' W 074°05'0 0.0
2017-Sep-11 11:53N 40°45' W 074°05'0 1.2
2017-Sep-11 11:29N 40°44' W 074°05'3 7.4
2017-Sep-11 11:00N 40°41' W 074°08'3 6.7
2017-Sep-11 10:30N 40°38' W 074°10'  

Dump ship's entire track history